Time,TemperatureF,DewpointF,PressureIn,WindDirection,WindDirectionDegrees,WindSpeedMPH,WindSpeedGustMPH,Humidity,HourlyPrecipIn,Conditions,Clouds,dailyrainin,SoftwareType,DateUTC
2013-01-14 00:00:00,60.4,59.8,30.18,NNE,31,0.0,5.0,98,0.99,,,0.53,Wunderground v.1.13,2013-01-14 05:00:00,
2013-01-14 00:01:00,60.4,59.8,30.18,NNE,31,0.0,1.0,98,0.94,,,0.53,Wunderground v.1.13,2013-01-14 05:01:00,
2013-01-14 00:02:00,60.4,59.8,30.18,NNE,18,0.0,1.0,98,0.49,,,0.55,Wunderground v.1.13,2013-01-14 05:02:00,
2013-01-14 00:08:00,60.3,59.7,30.18,NW,319,0.0,1.0,98,1.52,,,0.64,Wunderground v.1.13,2013-01-14 05:08:00,
2013-01-14 00:13:00,60.2,59.6,30.18,NW,319,0.0,0.0,98,0.82,,,0.75,Wunderground v.1.13,2013-01-14 05:13:00,
2013-01-14 00:18:00,60.2,59.6,30.18,NW,319,0.0,0.0,98,0.53,,,0.82,Wunderground v.1.13,2013-01-14 05:18:00,
2013-01-14 00:23:00,60.1,59.5,30.18,NW,319,0.0,0.0,98,0.59,,,0.85,Wunderground v.1.13,2013-01-14 05:23:00,
2013-01-14 00:29:00,60.1,59.5,30.18,NW,319,0.0,0.0,98,0.20,,,0.87,Wunderground v.1.13,2013-01-14 05:29:00,
2013-01-14 00:34:00,60.0,59.4,30.18,NW,319,0.0,0.0,98,0.26,,,0.89,Wunderground v.1.13,2013-01-14 05:34:00,
2013-01-14 00:39:00,60.0,59.4,30.18,NW,319,0.0,0.0,98,0.24,,,0.91,Wunderground v.1.13,2013-01-14 05:39:00,
2013-01-14 00:45:00,60.0,59.4,30.18,NW,319,0.0,0.0,98,0.17,,,0.93,Wunderground v.1.13,2013-01-14 05:45:00,
2013-01-14 00:50:00,59.9,59.3,30.18,NW,319,0.0,0.0,98,0.14,,,0.01,Wunderground v.1.13,2013-01-14 05:50:00,
2013-01-14 00:55:00,59.9,59.3,30.18,NW,319,0.0,0.0,98,0.17,,,0.02,Wunderground v.1.13,2013-01-14 05:55:00,
2013-01-14 01:00:00,59.8,59.2,30.17,NW,319,0.0,0.0,98,0.10,,,0.03,Wunderground v.1.13,2013-01-14 06:00:00,
2013-01-14 01:06:00,59.8,59.2,30.17,NW,319,0.0,0.0,98,0.13,,,0.04,Wunderground v.1.13,2013-01-14 06:06:00,
2013-01-14 01:11:00,59.7,59.1,30.16,NW,319,0.0,0.0,98,0.09,,,0.05,Wunderground v.1.13,2013-01-14 06:11:00,
2013-01-14 01:16:00,59.6,59.0,30.17,NW,319,0.0,0.0,98,0.12,,,0.06,Wunderground v.1.13,2013-01-14 06:16:00,
2013-01-14 01:22:00,59.6,59.0,30.16,NW,319,0.0,0.0,98,0.07,,,0.06,Wunderground v.1.13,2013-01-14 06:22:00,
2013-01-14 01:27:00,59.6,59.0,30.17,NW,319,0.0,0.0,98,0.05,,,0.07,Wunderground v.1.13,2013-01-14 06:27:00,
2013-01-14 01:32:00,59.6,59.0,30.17,NW,319,0.0,0.0,98,0.05,,,0.07,Wunderground v.1.13,2013-01-14 06:32:00,
2013-01-14 01:38:00,59.6,59.0,30.16,NW,319,0.0,0.0,98,0.05,,,0.07,Wunderground v.1.13,2013-01-14 06:38:00,
2013-01-14 01:43:00,59.6,59.0,30.16,NW,319,0.0,0.0,98,0.00,,,0.07,Wunderground v.1.13,2013-01-14 06:43:00,
2013-01-14 01:48:00,59.6,59.0,30.16,NW,319,0.0,0.0,98,0.00,,,0.07,Wunderground v.1.13,2013-01-14 06:48:00,
2013-01-14 01:54:00,59.7,59.1,30.16,NW,319,0.0,0.0,98,0.00,,,0.07,Wunderground v.1.13,2013-01-14 06:54:00,
2013-01-14 01:59:00,59.8,59.2,30.16,NW,319,0.0,0.0,98,0.00,,,0.07,Wunderground v.1.13,2013-01-14 06:59:00,
2013-01-14 02:04:00,59.9,59.3,30.16,SSW,196,0.0,0.0,98,0.00,,,0.07,Wunderground v.1.13,2013-01-14 07:04:00,
2013-01-14 02:09:00,59.9,59.3,30.16,SSW,196,0.0,0.0,98,0.00,,,0.07,Wunderground v.1.13,2013-01-14 07:09:00,
2013-01-14 02:14:00,59.9,59.3,30.16,SSW,196,0.0,0.0,98,0.00,,,0.07,Wunderground v.1.13,2013-01-14 07:14:00,
2013-01-14 02:19:00,59.9,59.3,30.17,SSW,196,0.0,0.0,98,0.00,,,0.07,Wunderground v.1.13,2013-01-14 07:19:00,
2013-01-14 02:24:00,59.9,59.3,30.17,SSE,147,0.0,4.0,98,0.00,,,0.07,Wunderground v.1.13,2013-01-14 07:24:00,
2013-01-14 02:29:00,59.9,59.3,30.16,SSE,147,0.0,0.0,98,0.00,,,0.07,Wunderground v.1.13,2013-01-14 07:29:00,
2013-01-14 02:34:00,59.9,59.3,30.16,SSE,147,0.0,0.0,98,0.00,,,0.07,Wunderground v.1.13,2013-01-14 07:34:00,
2013-01-14 02:39:00,59.9,59.3,30.16,SE,146,0.0,1.0,98,0.00,,,0.07,Wunderground v.1.13,2013-01-14 07:39:00,
2013-01-14 02:44:00,59.9,59.3,30.16,SE,146,0.0,0.0,98,0.00,,,0.07,Wunderground v.1.13,2013-01-14 07:44:00,
2013-01-14 02:49:00,59.9,59.3,30.16,SE,146,0.0,1.0,98,0.00,,,0.07,Wunderground v.1.13,2013-01-14 07:49:00,
2013-01-14 02:54:00,59.9,59.3,30.16,SSE,147,0.0,0.0,98,0.00,,,0.08,Wunderground v.1.13,2013-01-14 07:54:00,
2013-01-14 02:59:00,59.9,59.3,30.16,SSE,147,0.0,0.0,98,0.00,,,0.08,Wunderground v.1.13,2013-01-14 07:59:00,
2013-01-14 03:04:00,59.9,59.3,30.16,SSE,147,0.0,0.0,98,0.00,,,0.08,Wunderground v.1.13,2013-01-14 08:04:00,
2013-01-14 03:09:00,59.9,59.3,30.16,South,191,0.0,0.0,98,0.00,,,0.08,Wunderground v.1.13,2013-01-14 08:09:00,
2013-01-14 03:14:00,59.9,59.3,30.16,South,191,0.0,1.0,98,0.00,,,0.08,Wunderground v.1.13,2013-01-14 08:14:00,
2013-01-14 03:19:00,59.8,59.2,30.16,South,191,0.0,0.0,98,0.00,,,0.08,Wunderground v.1.13,2013-01-14 08:19:00,
2013-01-14 03:24:00,59.8,59.2,30.16,South,191,0.0,0.0,98,0.00,,,0.08,Wunderground v.1.13,2013-01-14 08:24:00,
2013-01-14 03:29:00,59.8,59.2,30.15,South,191,0.0,0.0,98,0.00,,,0.08,Wunderground v.1.13,2013-01-14 08:29:00,
2013-01-14 03:34:00,59.9,59.3,30.15,SE,125,0.0,0.0,98,0.00,,,0.08,Wunderground v.1.13,2013-01-14 08:34:00,
2013-01-14 03:39:00,59.9,59.3,30.16,South,171,0.0,3.0,98,0.00,,,0.08,Wunderground v.1.13,2013-01-14 08:39:00,
2013-01-14 03:44:00,59.9,59.3,30.16,South,170,0.0,0.0,98,0.00,,,0.08,Wunderground v.1.13,2013-01-14 08:44:00,
2013-01-14 03:49:00,59.9,59.6,30.15,South,170,0.0,0.0,99,0.00,,,0.08,Wunderground v.1.13,2013-01-14 08:49:00,
2013-01-14 03:54:00,59.8,59.5,30.15,South,170,0.0,0.0,99,0.00,,,0.08,Wunderground v.1.13,2013-01-14 08:54:00,
2013-01-14 03:59:00,59.9,59.6,30.15,South,170,0.0,0.0,99,0.00,,,0.08,Wunderground v.1.13,2013-01-14 08:59:00,
2013-01-14 04:04:00,59.8,59.5,30.15,South,170,0.0,0.0,99,0.00,,,0.08,Wunderground v.1.13,2013-01-14 09:04:00,
2013-01-14 04:09:00,59.8,59.5,30.15,South,170,0.0,0.0,99,0.00,,,0.08,Wunderground v.1.13,2013-01-14 09:09:00,
2013-01-14 04:14:00,59.8,59.5,30.15,South,170,0.0,1.0,99,0.00,,,0.08,Wunderground v.1.13,2013-01-14 09:14:00,
2013-01-14 04:19:00,59.8,59.5,30.14,South,170,0.0,0.0,99,0.00,,,0.08,Wunderground v.1.13,2013-01-14 09:19:00,
2013-01-14 04:24:00,59.8,59.5,30.14,SE,136,0.0,0.0,99,0.00,,,0.08,Wunderground v.1.13,2013-01-14 09:24:00,
2013-01-14 04:29:00,59.8,59.5,30.14,SE,136,0.0,0.0,99,0.00,,,0.08,Wunderground v.1.13,2013-01-14 09:29:00,
2013-01-14 04:34:00,59.8,59.5,30.14,SE,136,0.0,0.0,99,0.00,,,0.08,Wunderground v.1.13,2013-01-14 09:34:00,
2013-01-14 04:39:00,59.8,59.5,30.14,SE,136,0.0,0.0,99,0.00,,,0.08,Wunderground v.1.13,2013-01-14 09:39:00,
2013-01-14 04:44:00,59.7,59.4,30.14,SE,136,0.0,1.0,99,0.00,,,0.08,Wunderground v.1.13,2013-01-14 09:44:00,
2013-01-14 04:49:00,59.8,59.5,30.14,SE,136,0.0,0.0,99,0.00,,,0.08,Wunderground v.1.13,2013-01-14 09:49:00,
2013-01-14 04:54:00,59.8,59.2,30.14,SE,136,0.0,0.0,98,0.00,,,0.08,Wunderground v.1.13,2013-01-14 09:54:00,
2013-01-14 04:59:00,59.7,59.1,30.14,SE,136,0.0,1.0,98,0.00,,,0.08,Wunderground v.1.13,2013-01-14 09:59:00,
2013-01-14 05:04:00,59.7,59.1,30.14,SE,136,0.0,1.0,98,0.00,,,0.08,Wunderground v.1.13,2013-01-14 10:04:00,
2013-01-14 05:09:00,59.7,59.1,30.14,SE,136,0.0,0.0,98,0.00,,,0.08,Wunderground v.1.13,2013-01-14 10:09:00,
2013-01-14 05:14:00,59.7,59.4,30.14,SE,136,0.0,0.0,99,0.00,,,0.08,Wunderground v.1.13,2013-01-14 10:14:00,
2013-01-14 05:19:00,59.8,59.5,30.14,SE,136,0.0,0.0,99,0.00,,,0.08,Wunderground v.1.13,2013-01-14 10:19:00,
2013-01-14 05:25:00,59.8,59.5,30.14,SSE,158,0.0,6.0,99,0.00,,,0.08,Wunderground v.1.13,2013-01-14 10:25:00,
2013-01-14 05:30:00,59.8,59.5,30.14,SSE,158,0.0,0.0,99,0.00,,,0.08,Wunderground v.1.13,2013-01-14 10:30:00,
2013-01-14 05:35:00,59.8,59.5,30.14,SSE,158,0.0,0.0,99,0.00,,,0.09,Wunderground v.1.13,2013-01-14 10:35:00,
2013-01-14 05:40:00,59.8,59.5,30.15,SSE,158,0.0,0.0,99,0.08,,,0.10,Wunderground v.1.13,2013-01-14 10:40:00,
2013-01-14 05:45:00,59.8,59.5,30.15,SSE,158,0.0,0.0,99,0.08,,,0.10,Wunderground v.1.13,2013-01-14 10:45:00,
2013-01-14 05:50:00,59.8,59.5,30.15,SSE,158,0.0,0.0,99,0.05,,,0.10,Wunderground v.1.13,2013-01-14 10:50:00,
2013-01-14 05:55:00,59.7,59.4,30.15,SSE,158,0.0,0.0,99,0.04,,,0.10,Wunderground v.1.13,2013-01-14 10:55:00,
2013-01-14 06:00:00,59.7,59.4,30.15,SSE,158,0.0,0.0,99,0.00,,,0.10,Wunderground v.1.13,2013-01-14 11:00:00,
2013-01-14 06:05:00,59.7,59.4,30.15,SSE,158,0.0,0.0,99,0.00,,,0.10,Wunderground v.1.13,2013-01-14 11:05:00,
2013-01-14 06:10:00,59.8,59.5,30.16,SSE,158,0.0,0.0,99,0.00,,,0.10,Wunderground v.1.13,2013-01-14 11:10:00,
2013-01-14 06:15:00,59.8,59.5,30.16,SSE,158,0.0,0.0,99,0.00,,,0.10,Wunderground v.1.13,2013-01-14 11:15:00,
2013-01-14 06:20:00,59.7,59.4,30.16,SSE,158,0.0,0.0,99,0.00,,,0.10,Wunderground v.1.13,2013-01-14 11:20:00,
2013-01-14 06:25:00,59.7,59.4,30.16,SSE,158,0.0,0.0,99,0.00,,,0.10,Wunderground v.1.13,2013-01-14 11:25:00,
2013-01-14 06:30:00,59.7,59.4,30.16,SSE,158,0.0,0.0,99,0.00,,,0.11,Wunderground v.1.13,2013-01-14 11:30:00,
2013-01-14 06:35:00,59.6,59.3,30.16,SSE,158,0.0,0.0,99,0.00,,,0.11,Wunderground v.1.13,2013-01-14 11:35:00,
2013-01-14 06:40:00,59.4,59.1,30.17,SSE,158,0.0,1.0,99,0.00,,,0.11,Wunderground v.1.13,2013-01-14 11:40:00,
2013-01-14 06:45:00,59.1,58.8,30.17,SSE,158,0.0,0.0,99,0.00,,,0.11,Wunderground v.1.13,2013-01-14 11:45:00,
2013-01-14 06:50:00,58.8,58.2,30.17,SSE,158,0.0,0.0,98,0.00,,,0.11,Wunderground v.1.13,2013-01-14 11:50:00,
2013-01-14 06:55:00,58.6,58.3,30.17,SSE,158,0.0,0.0,99,0.00,,,0.12,Wunderground v.1.13,2013-01-14 11:55:00,
2013-01-14 07:00:00,58.2,57.6,30.17,SSE,158,0.0,0.0,98,0.00,,,0.12,Wunderground v.1.13,2013-01-14 12:00:00,
2013-01-14 07:05:00,58.1,57.5,30.17,SSE,158,0.0,0.0,98,0.00,,,0.12,Wunderground v.1.13,2013-01-14 12:05:00,
2013-01-14 07:10:00,58.0,57.4,30.18,SSE,158,0.0,0.0,98,0.00,,,0.12,Wunderground v.1.13,2013-01-14 12:10:00,
2013-01-14 07:15:00,58.0,57.4,30.17,SSE,158,0.0,0.0,98,0.62,,,0.18,Wunderground v.1.13,2013-01-14 12:15:00,
2013-01-14 07:20:00,58.0,57.4,30.18,SSE,158,0.0,0.0,98,0.15,,,0.19,Wunderground v.1.13,2013-01-14 12:20:00,
2013-01-14 07:25:00,58.0,57.7,30.18,SSE,158,0.0,0.0,99,0.10,,,0.19,Wunderground v.1.13,2013-01-14 12:25:00,
2013-01-14 07:30:00,58.0,57.7,30.18,SSE,158,0.0,0.0,99,0.05,,,0.19,Wunderground v.1.13,2013-01-14 12:30:00,
2013-01-14 07:35:00,58.0,57.7,30.19,SSE,158,0.0,1.0,99,0.04,,,0.20,Wunderground v.1.13,2013-01-14 12:35:00,
2013-01-14 07:40:00,57.9,57.6,30.19,SSE,158,0.0,0.0,99,0.34,,,0.22,Wunderground v.1.13,2013-01-14 12:40:00,
2013-01-14 07:46:00,57.9,57.6,30.18,SSE,158,0.0,0.0,99,0.49,,,0.26,Wunderground v.1.13,2013-01-14 12:46:00,
2013-01-14 07:51:00,58.0,57.7,30.18,SSE,158,0.0,0.0,99,0.18,,,0.27,Wunderground v.1.13,2013-01-14 12:51:00,
2013-01-14 07:56:00,58.0,57.7,30.18,SSE,158,0.0,0.0,99,0.15,,,0.28,Wunderground v.1.13,2013-01-14 12:56:00,
2013-01-14 08:01:00,58.0,57.7,30.19,SSE,158,0.0,0.0,99,0.15,,,0.30,Wunderground v.1.13,2013-01-14 13:01:00,
2013-01-14 08:06:00,57.8,57.5,30.19,SSE,158,0.0,0.0,99,0.10,,,0.30,Wunderground v.1.13,2013-01-14 13:06:00,
2013-01-14 08:11:00,57.7,57.4,30.19,SSE,158,0.0,0.0,99,0.09,,,0.31,Wunderground v.1.13,2013-01-14 13:11:00,
2013-01-14 08:16:00,57.5,57.2,30.19,SSE,158,0.0,0.0,99,0.12,,,0.32,Wunderground v.1.13,2013-01-14 13:16:00,
2013-01-14 08:21:00,57.5,57.2,30.18,SSE,158,0.0,0.0,99,0.08,,,0.33,Wunderground v.1.13,2013-01-14 13:21:00,
2013-01-14 08:26:00,57.8,57.5,30.19,SSE,158,0.0,0.0,99,0.08,,,0.33,Wunderground v.1.13,2013-01-14 13:26:00,
2013-01-14 08:31:00,58.0,57.7,30.19,SSE,158,0.0,0.0,99,0.05,,,0.33,Wunderground v.1.13,2013-01-14 13:31:00,
2013-01-14 08:36:00,57.8,57.5,30.19,SSE,158,0.0,0.0,99,0.00,,,0.33,Wunderground v.1.13,2013-01-14 13:36:00,
2013-01-14 08:41:00,57.8,57.5,30.19,SSE,158,0.0,0.0,99,0.00,,,0.33,Wunderground v.1.13,2013-01-14 13:41:00,
2013-01-14 08:46:00,57.7,57.4,30.19,SSE,158,0.0,0.0,99,0.00,,,0.33,Wunderground v.1.13,2013-01-14 13:46:00,
2013-01-14 08:51:00,57.6,57.3,30.20,SSE,158,0.0,1.0,99,0.00,,,0.34,Wunderground v.1.13,2013-01-14 13:51:00,
2013-01-14 08:56:00,57.5,57.2,30.20,SSE,158,0.0,0.0,99,0.00,,,0.34,Wunderground v.1.13,2013-01-14 13:56:00,
2013-01-14 09:02:00,57.4,57.1,30.20,SSE,158,0.0,0.0,99,0.05,,,0.35,Wunderground v.1.13,2013-01-14 14:02:00,
2013-01-14 09:07:00,57.0,56.7,30.20,SSE,158,0.0,0.0,99,0.05,,,0.35,Wunderground v.1.13,2013-01-14 14:07:00,
2013-01-14 09:11:00,56.7,56.4,30.21,SSE,158,1.0,2.0,99,0.05,,,0.35,Wunderground v.1.13,2013-01-14 14:11:00,
2013-01-14 09:17:00,56.0,55.4,30.21,SSE,158,0.0,0.0,98,0.04,,,0.35,Wunderground v.1.13,2013-01-14 14:17:00,
2013-01-14 09:22:00,55.2,54.6,30.21,SSE,158,0.0,0.0,98,0.00,,,0.35,Wunderground v.1.13,2013-01-14 14:22:00,
2013-01-14 09:27:00,54.5,53.9,30.22,SSE,158,0.0,0.0,98,0.00,,,0.36,Wunderground v.1.13,2013-01-14 14:27:00,
2013-01-14 09:32:00,53.9,53.3,30.22,SSE,158,0.0,0.0,98,0.07,,,0.36,Wunderground v.1.13,2013-01-14 14:32:00,
2013-01-14 09:37:00,53.6,53.0,30.21,SSE,158,0.0,0.0,98,0.07,,,0.37,Wunderground v.1.13,2013-01-14 14:37:00,
2013-01-14 09:42:00,53.5,52.9,30.22,SSE,158,0.0,0.0,98,0.07,,,0.38,Wunderground v.1.13,2013-01-14 14:42:00,
2013-01-14 09:47:00,53.4,52.8,30.22,SSE,158,0.0,0.0,98,0.07,,,0.38,Wunderground v.1.13,2013-01-14 14:47:00,
2013-01-14 09:52:00,53.4,52.8,30.22,SSE,158,0.0,0.0,98,0.05,,,0.38,Wunderground v.1.13,2013-01-14 14:52:00,
2013-01-14 09:57:00,53.9,53.3,30.22,SW,215,0.0,3.0,98,0.04,,,0.38,Wunderground v.1.13,2013-01-14 14:57:00,
2013-01-14 10:02:00,53.8,53.5,30.22,SW,215,0.0,1.0,99,0.00,,,0.39,Wunderground v.1.13,2013-01-14 15:02:00,
2013-01-14 10:07:00,53.0,52.5,30.22,SW,227,0.0,1.0,98,0.00,,,0.39,Wunderground v.1.13,2013-01-14 15:07:00,
2013-01-14 10:12:00,52.5,52.0,30.23,SW,227,0.0,0.0,98,0.00,,,0.39,Wunderground v.1.13,2013-01-14 15:12:00,
2013-01-14 10:17:00,52.2,51.7,30.23,SW,227,0.0,0.0,98,0.00,,,0.39,Wunderground v.1.13,2013-01-14 15:17:00,
2013-01-14 10:22:00,51.9,51.4,30.23,SW,227,0.0,0.0,98,0.00,,,0.40,Wunderground v.1.13,2013-01-14 15:22:00,
2013-01-14 10:27:00,51.7,51.2,30.23,SW,227,0.0,1.0,98,0.00,,,0.40,Wunderground v.1.13,2013-01-14 15:27:00,
2013-01-14 10:32:00,51.5,51.0,30.22,SW,227,0.0,1.0,98,0.00,,,0.40,Wunderground v.1.13,2013-01-14 15:32:00,
2013-01-14 10:37:00,51.2,50.7,30.22,SW,227,0.0,1.0,98,0.00,,,0.40,Wunderground v.1.13,2013-01-14 15:37:00,
2013-01-14 10:42:00,51.1,50.6,30.22,SW,227,0.0,0.0,98,0.00,,,0.40,Wunderground v.1.13,2013-01-14 15:42:00,
2013-01-14 10:47:00,51.1,50.6,30.22,SW,226,0.0,0.0,98,0.00,,,0.40,Wunderground v.1.13,2013-01-14 15:47:00,
2013-01-14 10:52:00,50.9,50.4,30.23,SW,226,0.0,0.0,98,0.00,,,0.40,Wunderground v.1.13,2013-01-14 15:52:00,
2013-01-14 10:57:00,50.7,50.2,30.23,SW,228,0.0,1.0,98,0.00,,,0.40,Wunderground v.1.13,2013-01-14 15:57:00,
2013-01-14 11:02:00,50.7,50.2,30.23,SW,228,0.0,0.0,98,0.00,,,0.40,Wunderground v.1.13,2013-01-14 16:02:00,
2013-01-14 11:07:00,50.7,50.2,30.22,SW,228,0.0,0.0,98,0.00,,,0.40,Wunderground v.1.13,2013-01-14 16:07:00,
2013-01-14 11:12:00,50.8,50.3,30.23,SW,228,0.0,0.0,98,0.00,,,0.40,Wunderground v.1.13,2013-01-14 16:12:00,
2013-01-14 11:17:00,50.7,50.4,30.23,SW,228,0.0,0.0,99,0.00,,,0.41,Wunderground v.1.13,2013-01-14 16:17:00,
2013-01-14 11:22:00,50.6,50.1,30.23,SW,228,1.0,1.0,98,0.00,,,0.41,Wunderground v.1.13,2013-01-14 16:22:00,
2013-01-14 11:27:00,50.2,49.7,30.23,WSW,252,1.0,1.0,98,0.00,,,0.41,Wunderground v.1.13,2013-01-14 16:27:00,
2013-01-14 11:32:00,49.8,49.3,30.23,West,277,0.0,1.0,98,0.30,,,0.44,Wunderground v.1.13,2013-01-14 16:32:00,
2013-01-14 11:37:00,49.6,49.1,30.23,West,277,0.0,1.0,98,0.40,,,0.48,Wunderground v.1.13,2013-01-14 16:37:00,
2013-01-14 11:42:00,49.5,49.0,30.23,West,279,1.0,1.0,98,0.35,,,0.51,Wunderground v.1.13,2013-01-14 16:42:00,
2013-01-14 11:47:00,49.4,48.9,30.22,WNW,294,0.0,1.0,98,0.33,,,0.55,Wunderground v.1.13,2013-01-14 16:47:00,
2013-01-14 11:52:00,49.3,48.8,30.21,WNW,294,0.0,0.0,98,0.38,,,0.58,Wunderground v.1.13,2013-01-14 16:52:00,
2013-01-14 11:57:00,49.4,48.9,30.22,WNW,294,0.0,0.0,98,0.20,,,0.59,Wunderground v.1.13,2013-01-14 16:57:00,
2013-01-14 12:02:00,49.6,49.3,30.22,WNW,294,0.0,0.0,99,0.07,,,0.59,Wunderground v.1.13,2013-01-14 17:02:00,
2013-01-14 12:07:00,49.6,49.3,30.21,WNW,294,0.0,0.0,99,0.06,,,0.60,Wunderground v.1.13,2013-01-14 17:07:00,
2013-01-14 12:12:00,49.5,49.0,30.21,WNW,294,0.0,0.0,98,0.06,,,0.60,Wunderground v.1.13,2013-01-14 17:12:00,
2013-01-14 12:17:00,49.5,49.2,30.20,WNW,294,0.0,0.0,99,0.06,,,0.61,Wunderground v.1.13,2013-01-14 17:17:00,
2013-01-14 12:22:00,49.6,49.3,30.20,WNW,294,0.0,1.0,99,0.12,,,0.62,Wunderground v.1.13,2013-01-14 17:22:00,
2013-01-14 12:27:00,49.6,49.3,30.20,WNW,294,0.0,0.0,99,0.06,,,0.62,Wunderground v.1.13,2013-01-14 17:27:00,
2013-01-14 12:32:00,49.6,49.3,30.20,WNW,294,0.0,0.0,99,0.59,,,0.64,Wunderground v.1.13,2013-01-14 17:32:00,
2013-01-14 12:37:00,49.7,49.4,30.20,WNW,294,0.0,0.0,99,0.57,,,0.68,Wunderground v.1.13,2013-01-14 17:37:00,
2013-01-14 12:42:00,49.8,49.5,30.19,WNW,294,0.0,0.0,99,0.36,,,0.72,Wunderground v.1.13,2013-01-14 17:42:00,
2013-01-14 12:47:00,50.6,50.3,30.19,WNW,294,0.0,0.0,99,0.23,,,0.74,Wunderground v.1.13,2013-01-14 17:47:00,
2013-01-14 12:52:00,50.5,50.2,30.19,WNW,294,0.0,0.0,99,0.17,,,0.76,Wunderground v.1.13,2013-01-14 17:52:00,
2013-01-14 12:57:00,50.3,50.0,30.19,WNW,294,0.0,0.0,99,0.10,,,0.76,Wunderground v.1.13,2013-01-14 17:57:00,
2013-01-14 13:02:00,50.3,50.0,30.19,WNW,294,0.0,0.0,99,0.17,,,0.78,Wunderground v.1.13,2013-01-14 18:02:00,
2013-01-14 13:08:00,50.3,50.0,30.19,WNW,294,0.0,0.0,99,0.09,,,0.78,Wunderground v.1.13,2013-01-14 18:08:00,
2013-01-14 13:13:00,50.2,49.9,30.18,WNW,294,0.0,1.0,99,0.05,,,0.78,Wunderground v.1.13,2013-01-14 18:13:00,
2013-01-14 13:18:00,50.3,50.0,30.18,WNW,294,0.0,0.0,99,0.04,,,0.79,Wunderground v.1.13,2013-01-14 18:18:00,
2013-01-14 13:23:00,50.6,50.3,30.18,WNW,294,0.0,0.0,99,0.04,,,0.79,Wunderground v.1.13,2013-01-14 18:23:00,
2013-01-14 13:28:00,51.0,50.7,30.18,South,190,0.0,1.0,99,0.04,,,0.79,Wunderground v.1.13,2013-01-14 18:28:00,
2013-01-14 13:33:00,51.1,50.8,30.18,South,190,0.0,0.0,99,0.05,,,0.80,Wunderground v.1.13,2013-01-14 18:33:00,
2013-01-14 13:38:00,51.9,51.6,30.18,South,190,0.0,0.0,99,0.05,,,0.80,Wunderground v.1.13,2013-01-14 18:38:00,
2013-01-14 13:43:00,52.9,52.6,30.18,South,190,1.0,1.0,99,0.04,,,0.80,Wunderground v.1.13,2013-01-14 18:43:00,
2013-01-14 13:48:00,52.6,52.3,30.19,SW,230,0.0,1.0,99,0.00,,,0.80,Wunderground v.1.13,2013-01-14 18:48:00,
2013-01-14 13:53:00,51.9,51.6,30.19,SW,230,0.0,0.0,99,0.00,,,0.80,Wunderground v.1.13,2013-01-14 18:53:00,
2013-01-14 13:58:00,51.4,51.1,30.19,SW,230,0.0,0.0,99,0.00,,,0.80,Wunderground v.1.13,2013-01-14 18:58:00,
2013-01-14 14:03:00,51.3,51.0,30.18,SW,230,0.0,0.0,99,0.00,,,0.81,Wunderground v.1.13,2013-01-14 19:03:00,
2013-01-14 14:08:00,51.4,51.1,30.18,SW,230,0.0,0.0,99,0.09,,,0.82,Wunderground v.1.13,2013-01-14 19:08:00,
2013-01-14 14:13:00,51.8,51.5,30.18,SW,230,0.0,0.0,99,0.07,,,0.82,Wunderground v.1.13,2013-01-14 19:13:00,
2013-01-14 14:18:00,52.4,52.1,30.18,SW,230,0.0,0.0,99,0.04,,,0.82,Wunderground v.1.13,2013-01-14 19:18:00,
2013-01-14 14:23:00,53.5,53.2,30.18,ESE,105,1.0,3.0,99,0.00,,,0.82,Wunderground v.1.13,2013-01-14 19:23:00,
2013-01-14 14:28:00,54.1,53.8,30.18,ESE,105,0.0,1.0,99,0.00,,,0.82,Wunderground v.1.13,2013-01-14 19:28:00,
2013-01-14 14:33:00,54.8,54.5,30.18,ESE,105,0.0,0.0,99,0.00,,,0.82,Wunderground v.1.13,2013-01-14 19:33:00,
2013-01-14 14:38:00,56.2,55.9,30.18,SE,130,0.0,5.0,99,0.00,,,0.82,Wunderground v.1.13,2013-01-14 19:38:00,
2013-01-14 14:43:00,57.2,56.9,30.18,South,169,1.0,7.0,99,0.00,,,0.82,Wunderground v.1.13,2013-01-14 19:43:00,
2013-01-14 14:48:00,57.9,57.6,30.18,SSW,206,0.0,2.0,99,0.00,,,0.82,Wunderground v.1.13,2013-01-14 19:48:00,
2013-01-14 14:53:00,58.2,57.9,30.18,SSE,158,0.0,1.0,99,0.00,,,0.82,Wunderground v.1.13,2013-01-14 19:53:00,
2013-01-14 14:58:00,58.3,58.0,30.18,East,100,0.0,1.0,99,0.00,,,0.83,Wunderground v.1.13,2013-01-14 19:58:00,
2013-01-14 15:03:00,58.4,58.1,30.18,South,171,0.0,5.0,99,0.00,,,0.83,Wunderground v.1.13,2013-01-14 20:03:00,
2013-01-14 15:08:00,58.5,58.2,30.18,SSW,206,0.0,3.0,99,0.25,,,0.85,Wunderground v.1.13,2013-01-14 20:08:00,
2013-01-14 15:13:00,58.6,58.3,30.19,SSW,212,0.0,1.0,99,0.11,,,0.85,Wunderground v.1.13,2013-01-14 20:13:00,
2013-01-14 15:18:00,58.7,58.4,30.19,SSW,212,0.0,1.0,99,0.06,,,0.85,Wunderground v.1.13,2013-01-14 20:18:00,
2013-01-14 15:23:00,58.9,58.6,30.19,South,186,0.0,4.0,99,0.05,,,0.86,Wunderground v.1.13,2013-01-14 20:23:00,
2013-01-14 15:28:00,59.0,58.7,30.19,SSW,209,0.0,4.0,99,0.07,,,0.87,Wunderground v.1.13,2013-01-14 20:28:00,
2013-01-14 15:33:00,59.2,58.9,30.19,South,179,0.0,3.0,99,0.11,,,0.88,Wunderground v.1.13,2013-01-14 20:33:00,
2013-01-14 15:38:00,59.3,59.0,30.20,South,190,0.0,1.0,99,0.11,,,0.88,Wunderground v.1.13,2013-01-14 20:38:00,
2013-01-14 15:43:00,59.2,58.9,30.20,SW,225,0.0,1.0,99,0.06,,,0.88,Wunderground v.1.13,2013-01-14 20:43:00,
2013-01-14 15:48:00,59.2,58.9,30.20,SSW,194,0.0,3.0,99,0.04,,,0.88,Wunderground v.1.13,2013-01-14 20:48:00,
2013-01-14 15:53:00,59.2,58.9,30.20,South,171,0.0,1.0,99,0.00,,,0.88,Wunderground v.1.13,2013-01-14 20:53:00,
2013-01-14 15:59:00,59.1,58.8,30.20,South,184,0.0,7.0,99,0.00,,,0.88,Wunderground v.1.13,2013-01-14 20:59:00,
2013-01-14 16:04:00,59.0,58.7,30.20,South,172,0.0,4.0,99,0.00,,,0.88,Wunderground v.1.13,2013-01-14 21:04:00,
2013-01-14 16:09:00,59.0,58.7,30.21,SE,146,0.0,2.0,99,0.00,,,0.88,Wunderground v.1.13,2013-01-14 21:09:00,
2013-01-14 16:13:00,59.0,58.7,30.21,SE,146,0.0,1.0,99,0.00,,,0.88,Wunderground v.1.13,2013-01-14 21:13:00,
2013-01-14 16:18:00,59.0,58.7,30.21,South,181,0.0,4.0,99,0.00,,,0.88,Wunderground v.1.13,2013-01-14 21:18:00,
2013-01-14 16:23:00,58.9,58.6,30.21,South,180,1.0,1.0,99,0.00,,,0.88,Wunderground v.1.13,2013-01-14 21:23:00,
2013-01-14 16:29:00,58.9,58.6,30.21,South,180,0.0,0.0,99,0.00,,,0.88,Wunderground v.1.13,2013-01-14 21:29:00,
2013-01-14 16:34:00,58.8,58.5,30.21,SSE,155,3.0,3.0,99,0.00,,,0.88,Wunderground v.1.13,2013-01-14 21:34:00,
2013-01-14 16:39:00,58.7,58.4,30.21,SSE,163,0.0,3.0,99,0.00,,,0.88,Wunderground v.1.13,2013-01-14 21:39:00,
2013-01-14 16:44:00,58.7,58.4,30.22,SSE,163,0.0,0.0,99,0.00,,,0.89,Wunderground v.1.13,2013-01-14 21:44:00,
2013-01-14 16:49:00,58.8,58.5,30.22,SSE,163,0.0,1.0,99,0.00,,,0.89,Wunderground v.1.13,2013-01-14 21:49:00,
2013-01-14 16:54:00,58.8,58.5,30.22,SSE,163,0.0,0.0,99,0.07,,,0.90,Wunderground v.1.13,2013-01-14 21:54:00,
2013-01-14 16:59:00,58.8,58.5,30.22,SSE,163,0.0,0.0,99,0.06,,,0.90,Wunderground v.1.13,2013-01-14 21:59:00,
2013-01-14 17:04:00,58.8,58.5,30.22,SSE,163,0.0,0.0,99,0.04,,,0.90,Wunderground v.1.13,2013-01-14 22:04:00,
2013-01-14 17:09:00,58.8,58.5,30.23,SSE,163,0.0,2.0,99,0.00,,,0.90,Wunderground v.1.13,2013-01-14 22:09:00,
2013-01-14 17:14:00,58.9,58.6,30.23,SSW,195,0.0,2.0,99,0.00,,,0.91,Wunderground v.1.13,2013-01-14 22:14:00,
2013-01-14 17:19:00,59.0,58.7,30.23,SSW,195,0.0,0.0,99,0.00,,,0.91,Wunderground v.1.13,2013-01-14 22:19:00,
2013-01-14 17:24:00,59.0,58.7,30.23,SSW,195,0.0,0.0,99,0.00,,,0.91,Wunderground v.1.13,2013-01-14 22:24:00,
2013-01-14 17:29:00,59.0,58.7,30.22,SSW,195,0.0,0.0,99,0.00,,,0.91,Wunderground v.1.13,2013-01-14 22:29:00,
2013-01-14 17:35:00,59.0,58.7,30.23,SSW,195,0.0,0.0,99,0.00,,,0.91,Wunderground v.1.13,2013-01-14 22:35:00,
2013-01-14 17:40:00,58.9,58.6,30.23,SW,230,0.0,2.0,99,0.00,,,0.91,Wunderground v.1.13,2013-01-14 22:40:00,
2013-01-14 17:45:00,57.0,56.4,30.23,SW,232,2.0,2.0,98,0.00,,,0.92,Wunderground v.1.13,2013-01-14 22:45:00,
2013-01-14 17:50:00,55.6,54.5,30.24,SW,234,0.0,1.0,96,0.34,,,0.94,Wunderground v.1.13,2013-01-14 22:50:00,
2013-01-14 17:55:00,54.7,53.6,30.24,SW,234,0.0,2.0,96,0.09,,,0.94,Wunderground v.1.13,2013-01-14 22:55:00,
2013-01-14 18:00:00,54.1,53.3,30.24,SW,236,0.0,2.0,97,0.05,,,0.94,Wunderground v.1.13,2013-01-14 23:00:00,
2013-01-14 18:05:00,53.6,52.8,30.24,North,5,0.0,5.0,97,0.04,,,0.94,Wunderground v.1.13,2013-01-14 23:05:00,
2013-01-14 18:10:00,52.7,51.6,30.25,SSW,206,0.0,3.0,96,0.00,,,0.95,Wunderground v.1.13,2013-01-14 23:10:00,
2013-01-14 18:15:00,51.8,50.7,30.25,West,266,0.0,2.0,96,0.49,,,0.98,Wunderground v.1.13,2013-01-14 23:15:00,
2013-01-14 18:20:00,51.0,49.9,30.26,West,263,0.0,2.0,96,0.54,,,1.03,Wunderground v.1.13,2013-01-14 23:20:00,
2013-01-14 18:25:00,50.1,49.0,30.26,NNW,333,2.0,3.0,96,0.22,,,1.07,Wunderground v.1.13,2013-01-14 23:25:00,
2013-01-14 18:30:00,49.3,48.2,30.25,NNW,333,0.0,1.0,96,0.07,,,1.07,Wunderground v.1.13,2013-01-14 23:30:00,
2013-01-14 18:35:00,48.7,47.6,30.26,NNW,333,0.0,1.0,96,0.05,,,1.07,Wunderground v.1.13,2013-01-14 23:35:00,
2013-01-14 18:40:00,48.3,47.5,30.26,NNW,331,0.0,3.0,97,0.00,,,1.07,Wunderground v.1.13,2013-01-14 23:40:00,
2013-01-14 18:45:00,47.9,47.1,30.26,NW,319,0.0,3.0,97,0.00,,,1.08,Wunderground v.1.13,2013-01-14 23:45:00,
2013-01-14 18:50:00,47.6,46.8,30.26,NW,313,0.0,2.0,97,0.11,,,1.09,Wunderground v.1.13,2013-01-14 23:50:00,
2013-01-14 18:55:00,47.3,46.5,30.27,NW,313,0.0,2.0,97,0.10,,,1.10,Wunderground v.1.13,2013-01-14 23:55:00,
2013-01-14 19:00:00,47.2,46.7,30.27,WSW,240,0.0,3.0,98,0.08,,,1.10,Wunderground v.1.13,2013-01-15 00:00:00,
2013-01-14 19:05:00,47.0,46.5,30.28,WSW,248,1.0,3.0,98,0.47,,,1.12,Wunderground v.1.13,2013-01-15 00:05:00,
2013-01-14 19:10:00,46.7,46.2,30.29,WNW,294,1.0,3.0,98,0.10,,,1.12,Wunderground v.1.13,2013-01-15 00:10:00,
2013-01-14 19:15:00,46.4,45.9,30.29,WNW,294,1.0,3.0,98,0.10,,,1.13,Wunderground v.1.13,2013-01-15 00:15:00,
2013-01-14 19:20:00,46.0,45.5,30.29,WNW,302,0.0,2.0,98,0.06,,,1.13,Wunderground v.1.13,2013-01-15 00:20:00,
2013-01-14 19:25:00,45.8,45.3,30.29,WNW,302,0.0,1.0,98,0.04,,,1.13,Wunderground v.1.13,2013-01-15 00:25:00,
2013-01-14 19:30:00,45.6,45.1,30.29,WNW,302,0.0,0.0,98,0.00,,,1.13,Wunderground v.1.13,2013-01-15 00:30:00,
2013-01-14 19:35:00,45.5,45.0,30.29,NW,315,2.0,2.0,98,0.00,,,1.13,Wunderground v.1.13,2013-01-15 00:35:00,
2013-01-14 19:40:00,45.5,45.0,30.30,NW,315,0.0,0.0,98,0.00,,,1.13,Wunderground v.1.13,2013-01-15 00:40:00,
2013-01-14 19:45:00,45.6,45.1,30.30,NW,315,0.0,0.0,98,0.00,,,1.13,Wunderground v.1.13,2013-01-15 00:45:00,
2013-01-14 19:50:00,45.6,45.1,30.30,NW,315,0.0,0.0,98,0.00,,,1.13,Wunderground v.1.13,2013-01-15 00:50:00,
2013-01-14 19:55:00,45.6,45.1,30.30,NW,315,0.0,2.0,98,0.00,,,1.13,Wunderground v.1.13,2013-01-15 00:55:00,
2013-01-14 20:00:00,45.6,45.3,30.30,NW,315,1.0,2.0,99,0.00,,,1.13,Wunderground v.1.13,2013-01-15 01:00:00,
2013-01-14 20:05:00,45.6,45.3,30.30,NW,315,0.0,0.0,99,0.00,,,1.13,Wunderground v.1.13,2013-01-15 01:05:00,
2013-01-14 20:10:00,45.7,45.4,30.31,NW,315,0.0,0.0,99,0.00,,,1.13,Wunderground v.1.13,2013-01-15 01:10:00,
2013-01-14 20:16:00,45.8,45.5,30.31,NW,315,0.0,0.0,99,0.00,,,1.13,Wunderground v.1.13,2013-01-15 01:16:00,
2013-01-14 20:21:00,45.8,45.5,30.30,NW,315,0.0,0.0,99,0.00,,,1.13,Wunderground v.1.13,2013-01-15 01:21:00,
2013-01-14 20:26:00,45.8,45.5,30.30,NW,315,0.0,0.0,99,0.00,,,1.13,Wunderground v.1.13,2013-01-15 01:26:00,
2013-01-14 20:31:00,45.8,45.5,30.30,NW,315,0.0,0.0,99,0.00,,,1.13,Wunderground v.1.13,2013-01-15 01:31:00,
2013-01-14 20:36:00,45.8,45.5,30.30,NW,315,0.0,0.0,99,0.00,,,1.13,Wunderground v.1.13,2013-01-15 01:36:00,
2013-01-14 20:41:00,45.8,45.5,30.30,NW,315,0.0,0.0,99,0.00,,,1.13,Wunderground v.1.13,2013-01-15 01:41:00,
2013-01-14 20:46:00,45.8,45.5,30.30,NW,315,0.0,0.0,99,0.00,,,1.13,Wunderground v.1.13,2013-01-15 01:46:00,
2013-01-14 20:51:00,45.8,45.5,30.30,NW,315,0.0,0.0,99,0.00,,,1.13,Wunderground v.1.13,2013-01-15 01:51:00,
2013-01-14 20:56:00,45.8,45.5,30.29,NW,315,0.0,0.0,99,0.00,,,1.13,Wunderground v.1.13,2013-01-15 01:56:00,
2013-01-14 21:01:00,45.8,45.5,30.29,NW,315,0.0,0.0,99,0.00,,,1.13,Wunderground v.1.13,2013-01-15 02:01:00,
2013-01-14 21:06:00,45.7,45.4,30.29,NW,315,0.0,1.0,99,0.00,,,1.13,Wunderground v.1.13,2013-01-15 02:06:00,
2013-01-14 21:11:00,45.7,45.4,30.29,NW,315,0.0,0.0,99,0.00,,,1.13,Wunderground v.1.13,2013-01-15 02:11:00,
2013-01-14 21:16:00,45.7,45.4,30.30,NW,315,0.0,0.0,99,0.00,,,1.13,Wunderground v.1.13,2013-01-15 02:16:00,
2013-01-14 21:21:00,45.6,45.3,30.30,NW,315,0.0,0.0,99,0.00,,,1.13,Wunderground v.1.13,2013-01-15 02:21:00,
2013-01-14 21:26:00,45.6,45.3,30.29,NW,315,0.0,0.0,99,0.00,,,1.13,Wunderground v.1.13,2013-01-15 02:26:00,
2013-01-14 21:31:00,45.6,45.3,30.29,NW,315,0.0,0.0,99,0.00,,,1.13,Wunderground v.1.13,2013-01-15 02:31:00,
2013-01-14 21:36:00,45.6,45.3,30.29,NW,315,0.0,0.0,99,0.00,,,1.13,Wunderground v.1.13,2013-01-15 02:36:00,
2013-01-14 21:41:00,45.6,45.3,30.30,NW,315,0.0,0.0,99,0.00,,,1.13,Wunderground v.1.13,2013-01-15 02:41:00,
2013-01-14 21:46:00,45.5,45.2,30.30,NW,315,0.0,0.0,99,0.00,,,1.13,Wunderground v.1.13,2013-01-15 02:46:00,
2013-01-14 21:51:00,45.4,45.1,30.31,NW,315,0.0,1.0,99,0.00,,,1.13,Wunderground v.1.13,2013-01-15 02:51:00,
2013-01-14 21:56:00,45.1,44.8,30.30,NW,315,0.0,0.0,99,0.00,,,1.13,Wunderground v.1.13,2013-01-15 02:56:00,
2013-01-14 22:01:00,45.0,44.7,30.30,NW,315,0.0,0.0,99,0.00,,,1.13,Wunderground v.1.13,2013-01-15 03:01:00,
2013-01-14 22:06:00,44.9,44.6,30.29,NW,315,0.0,0.0,99,0.00,,,1.13,Wunderground v.1.13,2013-01-15 03:06:00,
2013-01-14 22:11:00,44.9,44.6,30.29,NW,315,0.0,0.0,99,0.00,,,1.13,Wunderground v.1.13,2013-01-15 03:11:00,
2013-01-14 22:16:00,45.0,44.7,30.28,NW,315,0.0,0.0,99,0.00,,,1.13,Wunderground v.1.13,2013-01-15 03:16:00,
2013-01-14 22:21:00,45.3,45.0,30.29,NW,315,0.0,0.0,99,0.00,,,1.13,Wunderground v.1.13,2013-01-15 03:21:00,
2013-01-14 22:26:00,45.6,45.3,30.29,NW,315,0.0,0.0,99,0.00,,,1.13,Wunderground v.1.13,2013-01-15 03:26:00,
2013-01-14 22:31:00,45.6,45.3,30.29,NW,315,0.0,0.0,99,0.00,,,1.13,Wunderground v.1.13,2013-01-15 03:31:00,
2013-01-14 22:36:00,45.7,45.4,30.29,NW,315,0.0,0.0,99,0.00,,,1.13,Wunderground v.1.13,2013-01-15 03:36:00,
2013-01-14 22:41:00,45.7,45.4,30.28,NW,315,0.0,0.0,99,0.00,,,1.13,Wunderground v.1.13,2013-01-15 03:41:00,
2013-01-14 22:46:00,45.9,45.6,30.27,NW,315,0.0,1.0,99,0.00,,,1.13,Wunderground v.1.13,2013-01-15 03:46:00,
2013-01-14 22:51:00,46.1,45.8,30.28,NW,315,0.0,0.0,99,0.00,,,1.13,Wunderground v.1.13,2013-01-15 03:51:00,
2013-01-14 22:56:00,46.2,45.9,30.27,NW,315,0.0,0.0,99,0.00,,,1.13,Wunderground v.1.13,2013-01-15 03:56:00,
2013-01-14 23:01:00,46.2,45.9,30.27,NW,315,0.0,0.0,99,0.00,,,1.13,Wunderground v.1.13,2013-01-15 04:01:00,
2013-01-14 23:06:00,46.2,45.9,30.27,NW,315,0.0,0.0,99,0.00,,,1.13,Wunderground v.1.13,2013-01-15 04:06:00,
2013-01-14 23:11:00,46.2,45.9,30.28,NW,315,0.0,0.0,99,0.00,,,1.13,Wunderground v.1.13,2013-01-15 04:11:00,
2013-01-14 23:16:00,46.3,46.0,30.27,NW,315,0.0,0.0,99,0.00,,,1.13,Wunderground v.1.13,2013-01-15 04:16:00,
2013-01-14 23:21:00,46.4,46.1,30.26,NW,315,0.0,0.0,99,0.00,,,1.13,Wunderground v.1.13,2013-01-15 04:21:00,
2013-01-14 23:26:00,46.5,46.2,30.26,NW,315,0.0,2.0,99,0.00,,,1.13,Wunderground v.1.13,2013-01-15 04:26:00,
2013-01-14 23:31:00,46.6,46.3,30.26,NW,315,0.0,0.0,99,0.00,,,1.13,Wunderground v.1.13,2013-01-15 04:31:00,
2013-01-14 23:36:00,46.7,46.4,30.27,NW,315,0.0,2.0,99,0.00,,,1.13,Wunderground v.1.13,2013-01-15 04:36:00,
2013-01-14 23:41:00,46.8,46.5,30.26,NW,315,0.0,0.0,99,0.00,,,1.13,Wunderground v.1.13,2013-01-15 04:41:00,
2013-01-14 23:46:00,46.9,46.6,30.26,NW,315,0.0,0.0,99,0.00,,,1.13,Wunderground v.1.13,2013-01-15 04:46:00,
2013-01-14 23:52:00,46.9,46.6,30.26,NW,315,0.0,0.0,99,0.00,,,1.13,Wunderground v.1.13,2013-01-15 04:52:00,
2013-01-14 23:57:00,46.9,46.6,30.26,NW,315,0.0,0.0,99,0.00,,,1.14,Wunderground v.1.13,2013-01-15 04:57:00,